Bemidji, MN

12:22 PM CST on March 06, 2015 (GMT -0600)
Turtle River TWP | Change Station
CLOSE
Current Station
Personal Weather Station
Location: Bemidji, MN
Elevation: 1379 ft
Nearby Weather Stations

Elev 1379 ft 47.54 °N, 94.72 °W | Updated 6 seconds ago

Clear
Clear
31.8 °F
Feels Like 25 °F
N
7.6
Wind Variable Wind from NW
Gusts 16.8 mph

Today
High -- | Low -- °F
--% Chance of Precip.
Yesterday
High -- | Low -- °F
Precip. -- in
6:50 AM 6:10 PM
Full, 99% visible
Pressure 30.02 in
Visibility 10.0 miles
Clouds Clear
Windchill 25 °F
Dew Point 7 °F
Humidity 35%
Rainfall in
Snow Depth Not available.
UV 4 out of 12
Pollen .10 out of 12
Air Quality Not available.
Flu Activity Not available.
METAR KBJI 061812Z AUTO 28015KT 10SM CLR M03/M11 A3002 RMK AO2 T10261113

More Conditions Fewer Conditions

Pressure 30.02 in
Visibility 10.0 miles
Clouds Clear
Windchill 25 °F
Dew Point 7 °F
Humidity 35%
Rainfall in
Snow Depth Not available.
UV 4 out of 12
Pollen .10 out of 12
Air Quality Not available.
Flu Activity Not available.
METAR KBJI 061812Z AUTO 28015KT 10SM CLR M03/M11 A3002 RMK AO2 T10261113

More Conditions Fewer Conditions

10-Day Weather Forecast

Almanac

Astronomy

Mar. 06, 2015 Rise Set
Actual Time
Civil Twilight
Nautical Twilight
Astronomical Twilight
Moon
Length of Visible Light
Length of Day
Tomorrow will be .
, % of the Moon is Illuminated

Today's Extremes

State Highs State Lows

Community

WunderPhotos

Upload Photos

1,803,359 photos uploaded!

WunderBlogs® & News

Nearby

Air Quality

  Air Quality AQ Index Pollutant
Not available.

Snow Depth

Station Depth Elevation

Earthquake Activity

City Distance Mag. Time & Date
Minimum magnitude displayed is 2.5.

Coastal Water Temperatures

Place Temperature

Nearby Weather Stations